Time;durP1;ratioP1;P1;durP2;ratioP2;P2;SDS_P1;SDS_P2;PMS_P1;PMS_P2;Temp;Humidity;BMP_temperature;BMP_pressure;BME280_temperature;BME280_humidity;BME280_pressure;Samples;Min_cycle;Max_cycle;Signal;HPM_P1;HPM_P2
2023/12/14 02:14:03;;;;;;;650.85;603.33;;;4.10;99.90;;;;;;5979810;23;20062;-89
2023/12/14 02:29:09;;;;;;;;;;;;;;;;;;;;;
2023/12/14 02:37:13;;;;;;;;;;;;;;;;;;;;;
2023/12/14 02:52:02;;;;;;;;;;;;;;;;;;;;;
2023/12/14 03:41:43;;;;;;;;;;;;;;;;;;;;;
2023/12/14 04:01:23;;;;;;;607.60;563.40;;;4.10;99.90;;;;;;6248858;22;20059;-87
2023/12/14 04:19:35;;;;;;;640.28;593.75;;;3.70;99.90;;;;;;6335884;22;20041;-87
2023/12/14 04:23:27;;;;;;;;;;;;;;;;;;;;;
2023/12/14 04:27:37;;;;;;;586.88;544.05;;;4.10;99.90;;;;;;6335095;22;20044;-87
2023/12/14 04:35:51;;;;;;;631.28;585.08;;;4.20;99.90;;;;;;6137700;23;20019;-87
2023/12/14 04:51:31;;;;;;;;;;;;;;;;;;;;;
2023/12/14 04:54:11;;;;;;;;;;;;;;;;;;;;;
2023/12/14 04:57:56;;;;;;;;;;;;;;;;;;;;;
2023/12/14 05:02:14;;;;;;;601.53;557.95;;;4.00;99.90;;;;;;6276274;22;20034;-88
2023/12/14 05:14:34;;;;;;;;;;;;;;;;;;;;;
2023/12/14 05:21:58;;;;;;;;;;;;;;;;;;;;;
2023/12/14 05:25:23;;;;;;;;;;;;;;;;;;;;;
2023/12/14 05:29:24;;;;;;;;;;;;;;;;;;;;;
2023/12/14 05:32:25;;;;;;;602.25;558.70;;;4.00;99.90;;;;;;6268464;22;20190;-88
2023/12/14 05:34:51;;;;;;;629.10;582.63;;;4.10;99.90;;;;;;6304541;22;20455;-81
2023/12/14 05:37:16;;;;;;;543.90;504.95;;;4.10;99.90;;;;;;6304457;22;20027;-81
2023/12/14 05:39:43;;;;;;;508.98;474.52;;;4.40;99.90;;;;;;6304435;22;20019;-80
2023/12/14 05:42:08;;;;;;;525.67;488.65;;;4.10;99.90;;;;;;6305510;22;20443;-80
2023/12/14 05:44:34;;;;;;;498.67;464.75;;;4.10;99.90;;;;;;6303788;22;20018;-80
2023/12/14 05:47:00;;;;;;;501.05;466.73;;;4.10;99.90;;;;;;6333353;22;20019;-80
2023/12/14 05:49:25;;;;;;;525.60;489.02;;;4.20;99.90;;;;;;6331677;22;20014;-80
2023/12/14 05:51:51;;;;;;;493.90;460.67;;;4.00;99.90;;;;;;6304705;22;20015;-80
2023/12/14 05:54:17;;;;;;;483.67;450.98;;;4.00;99.90;;;;;;6305335;22;20023;-80
2023/12/14 05:56:42;;;;;;;523.80;488.00;;;4.10;99.90;;;;;;6304911;22;20072;-81
2023/12/14 05:59:08;;;;;;;486.92;454.05;;;4.10;99.90;;;;;;6304375;22;20370;-81
2023/12/14 06:01:34;;;;;;;493.42;460.05;;;4.10;99.90;;;;;;6301140;22;20076;-81
2023/12/14 06:04:00;;;;;;;501.70;467.20;;;4.10;99.90;;;;;;6305369;22;20019;-81
2023/12/14 06:06:26;;;;;;;484.73;452.23;;;4.10;99.90;;;;;;6303554;22;20035;-81
2023/12/14 06:08:51;;;;;;;510.33;475.35;;;4.10;99.90;;;;;;6304928;22;20446;-80
2023/12/14 06:11:17;;;;;;;498.08;463.77;;;4.10;99.90;;;;;;6304520;22;20071;-80
2023/12/14 06:13:43;;;;;;;489.25;455.98;;;4.50;99.90;;;;;;6277656;22;20072;-81
2023/12/14 06:16:12;;;;;;;497.48;463.98;;;4.10;99.90;;;;;;6304870;22;20072;-81
2023/12/14 06:18:41;;;;;;;490.20;456.17;;;4.10;99.90;;;;;;6303582;22;20015;-81
2023/12/14 06:21:07;;;;;;;532.17;494.70;;;4.00;99.90;;;;;;6303275;22;20451;-80
2023/12/14 06:23:33;;;;;;;518.28;482.77;;;4.10;99.90;;;;;;6332316;22;20063;-81
2023/12/14 06:25:59;;;;;;;527.70;490.90;;;4.10;99.90;;;;;;6331740;22;20126;-82
2023/12/14 06:28:25;;;;;;;500.67;466.50;;;4.10;99.90;;;;;;6279007;22;20596;-82
2023/12/14 06:30:50;;;;;;;524.40;488.30;;;4.10;99.90;;;;;;6304621;22;20434;-81
2023/12/14 06:33:16;;;;;;;495.70;461.88;;;4.10;99.90;;;;;;6304496;22;20043;-82
2023/12/14 06:35:43;;;;;;;497.98;463.65;;;4.10;99.90;;;;;;6303827;22;20010;-81
2023/12/14 06:38:08;;;;;;;478.65;446.02;;;4.00;99.90;;;;;;6279154;22;20090;-81
2023/12/14 06:40:35;;;;;;;530.30;493.35;;;4.00;99.90;;;;;;6331514;22;20061;-81
2023/12/14 06:43:04;;;;;;;502.30;468.15;;;4.00;99.90;;;;;;6305024;22;20019;-81
2023/12/14 06:45:30;;;;;;;529.08;491.80;;;4.10;99.90;;;;;;6304590;22;20019;-81
2023/12/14 06:47:56;;;;;;;538.50;501.15;;;4.10;99.90;;;;;;6303890;22;20022;-81
2023/12/14 06:50:21;;;;;;;529.30;492.58;;;4.10;99.90;;;;;;6304087;22;20405;-81
2023/12/14 06:52:47;;;;;;;522.58;486.38;;;4.40;99.90;;;;;;6332445;22;20056;-81
2023/12/14 06:55:14;;;;;;;491.80;458.30;;;4.50;99.90;;;;;;6303396;22;20015;-81
2023/12/14 06:57:43;;;;;;;493.60;459.95;;;4.10;99.90;;;;;;6304557;22;20447;-81
2023/12/14 07:00:10;;;;;;;500.30;465.95;;;4.00;99.90;;;;;;6304310;22;20447;-81
2023/12/14 07:02:35;;;;;;;495.83;461.70;;;4.00;99.90;;;;;;6303934;22;20011;-82
2023/12/14 07:05:01;;;;;;;527.25;490.95;;;4.40;99.90;;;;;;6332507;22;20041;-81
2023/12/14 07:07:27;;;;;;;505.10;470.42;;;4.10;99.90;;;;;;6332700;22;20098;-82
2023/12/14 07:09:52;;;;;;;491.05;457.55;;;4.10;99.90;;;;;;6304120;22;20350;-81
2023/12/14 07:12:18;;;;;;;481.23;448.80;;;4.10;99.90;;;;;;6333107;22;20014;-82
2023/12/14 07:14:44;;;;;;;490.85;457.40;;;4.00;99.90;;;;;;6303856;22;20439;-82
2023/12/14 07:17:09;;;;;;;493.92;460.08;;;4.10;99.90;;;;;;6305056;22;20025;-82
2023/12/14 07:19:35;;;;;;;483.75;450.75;;;4.10;99.90;;;;;;6302519;22;20015;-82
2023/12/14 07:22:01;;;;;;;493.60;459.90;;;4.10;99.90;;;;;;6303812;22;20395;-82
2023/12/14 07:24:27;;;;;;;489.38;455.42;;;4.00;99.90;;;;;;6303964;22;20018;-82
2023/12/14 07:26:52;;;;;;;529.65;491.85;;;4.10;99.90;;;;;;6280010;22;20107;-82
2023/12/14 07:29:18;;;;;;;518.38;482.42;;;4.10;99.90;;;;;;6303906;22;20107;-82
2023/12/14 07:31:44;;;;;;;520.65;484.52;;;4.10;99.90;;;;;;6304096;22;20027;-82
2023/12/14 07:34:09;;;;;;;523.83;487.17;;;4.40;99.90;;;;;;6304736;22;20025;-82
2023/12/14 07:36:36;;;;;;;486.45;453.40;;;4.10;99.90;;;;;;6302300;22;20497;-82
2023/12/14 07:39:01;;;;;;;525.45;489.05;;;4.00;99.90;;;;;;6304746;22;20019;-82
2023/12/14 07:41:29;;;;;;;488.02;454.55;;;4.00;99.90;;;;;;6304275;22;20034;-83
2023/12/14 07:43:56;;;;;;;483.40;450.73;;;4.10;99.90;;;;;;6304111;22;20097;-82
2023/12/14 07:46:21;;;;;;;525.90;489.00;;;4.10;99.90;;;;;;6304662;22;20038;-82
2023/12/14 07:48:47;;;;;;;498.63;464.60;;;4.10;99.90;;;;;;6303866;22;20462;-82
2023/12/14 07:51:13;;;;;;;487.70;454.08;;;4.10;99.90;;;;;;6302711;22;20081;-82
2023/12/14 07:53:40;;;;;;;491.15;457.60;;;4.10;99.90;;;;;;6303466;22;20019;-82
2023/12/14 07:56:06;;;;;;;511.63;476.23;;;4.00;99.90;;;;;;6304700;22;20124;-82
2023/12/14 07:58:32;;;;;;;496.15;461.63;;;4.10;99.90;;;;;;6298133;22;20487;-82
2023/12/14 08:00:58;;;;;;;480.38;447.40;;;4.10;99.90;;;;;;6298761;22;20049;-82
2023/12/14 08:03:23;;;;;;;526.28;489.08;;;4.10;99.90;;;;;;6299296;22;20076;-82
2023/12/14 08:05:49;;;;;;;507.15;472.73;;;4.10;99.90;;;;;;6296005;22;20034;-82
2023/12/14 08:08:15;;;;;;;502.45;468.30;;;4.10;99.90;;;;;;6299432;22;20019;-82
2023/12/14 08:10:41;;;;;;;538.05;500.10;;;4.10;99.90;;;;;;6273079;22;20019;-82
2023/12/14 08:13:06;;;;;;;501.88;467.13;;;4.10;99.90;;;;;;6297788;22;20016;-83
2023/12/14 08:15:32;;;;;;;549.95;511.45;;;4.10;99.90;;;;;;6298447;22;20086;-82
2023/12/14 08:17:58;;;;;;;543.90;505.70;;;4.10;99.90;;;;;;6298093;22;20023;-82
2023/12/14 08:20:23;;;;;;;499.23;464.45;;;4.20;99.90;;;;;;6298829;22;20348;-82
2023/12/14 08:22:49;;;;;;;523.17;486.15;;;4.10;99.90;;;;;;6299037;22;20098;-82
2023/12/14 08:25:15;;;;;;;552.97;513.05;;;4.10;99.90;;;;;;6297402;22;20030;-82
2023/12/14 08:27:42;;;;;;;517.13;480.80;;;4.20;99.90;;;;;;6301133;22;20023;-83
2023/12/14 08:30:08;;;;;;;529.78;492.70;;;4.10;99.90;;;;;;6272841;22;20082;-83
2023/12/14 08:32:34;;;;;;;490.63;456.27;;;4.20;99.90;;;;;;6298062;22;20046;-82
2023/12/14 08:35:00;;;;;;;511.83;476.20;;;4.20;99.90;;;;;;6298226;22;20379;-83
2023/12/14 08:37:25;;;;;;;471.80;439.65;;;4.20;99.90;;;;;;6300452;22;20094;-82
2023/12/14 08:39:51;;;;;;;504.02;468.25;;;4.20;99.90;;;;;;6298090;22;20114;-82
2023/12/14 08:42:17;;;;;;;498.63;464.15;;;4.20;99.90;;;;;;6274108;22;20016;-82
2023/12/14 08:44:42;;;;;;;511.45;475.88;;;4.30;99.90;;;;;;6300179;22;20046;-83
2023/12/14 08:47:09;;;;;;;494.45;460.02;;;4.30;99.90;;;;;;6300258;22;20072;-83
2023/12/14 08:49:35;;;;;;;503.80;469.60;;;4.30;99.90;;;;;;6273464;22;20086;-82
2023/12/14 08:52:01;;;;;;;503.77;468.85;;;4.30;99.90;;;;;;6300971;22;20475;-82
2023/12/14 08:54:27;;;;;;;504.02;469.38;;;4.30;99.90;;;;;;6299373;22;20091;-83
2023/12/14 08:56:53;;;;;;;537.53;499.90;;;4.40;99.90;;;;;;6300703;22;20073;-83
2023/12/14 08:59:20;;;;;;;531.15;492.75;;;4.40;99.90;;;;;;6325832;22;20019;-82
2023/12/14 09:01:45;;;;;;;469.48;437.17;;;4.40;99.90;;;;;;6332217;22;20093;-82
2023/12/14 09:04:11;;;;;;;502.75;468.40;;;4.40;99.90;;;;;;6306212;22;20058;-82
2023/12/14 09:06:37;;;;;;;501.33;466.65;;;4.40;99.90;;;;;;6304013;22;20023;-83
2023/12/14 09:09:03;;;;;;;506.35;470.40;;;4.50;99.90;;;;;;6305347;22;20038;-83
2023/12/14 09:11:29;;;;;;;478.63;446.48;;;4.50;99.90;;;;;;6305129;22;20079;-82
2023/12/14 09:13:55;;;;;;;475.40;442.58;;;4.50;99.90;;;;;;6305596;22;20007;-83
2023/12/14 09:16:21;;;;;;;437.45;408.67;;;4.60;99.90;;;;;;6304713;22;20080;-82
2023/12/14 09:18:46;;;;;;;429.85;400.90;;;4.60;99.90;;;;;;6305086;22;20018;-83
2023/12/14 09:21:13;;;;;;;418.67;390.23;;;4.60;99.90;;;;;;6304885;22;20019;-82
2023/12/14 09:23:40;;;;;;;402.08;375.35;;;4.60;99.90;;;;;;6305584;22;20023;-83
2023/12/14 09:26:06;;;;;;;436.48;407.33;;;4.60;99.90;;;;;;6305189;22;20080;-82
2023/12/14 09:28:32;;;;;;;397.08;371.15;;;4.70;99.90;;;;;;6332103;22;20022;-82
2023/12/14 09:30:57;;;;;;;428.35;400.08;;;4.60;99.90;;;;;;6279104;22;20101;-82
2023/12/14 09:33:23;;;;;;;397.85;371.83;;;4.70;99.90;;;;;;6305709;22;20071;-82
2023/12/14 09:35:49;;;;;;;377.80;353.35;;;4.70;99.90;;;;;;6303717;22;20015;-82
2023/12/14 09:38:17;;;;;;;378.40;353.13;;;4.70;99.90;;;;;;6305086;22;20046;-82
2023/12/14 09:40:44;;;;;;;362.50;338.52;;;4.70;99.90;;;;;;6305283;22;20515;-82
2023/12/14 09:43:10;;;;;;;403.30;376.65;;;4.70;99.90;;;;;;6304145;22;20362;-82
2023/12/14 09:45:37;;;;;;;382.45;357.70;;;4.80;99.90;;;;;;6304349;22;20022;-82
2023/12/14 09:48:05;;;;;;;411.48;384.05;;;4.80;99.90;;;;;;6279220;22;20089;-83
2023/12/14 09:50:33;;;;;;;391.15;365.58;;;4.80;99.90;;;;;;6303464;22;20174;-83
2023/12/14 09:52:58;;;;;;;375.02;350.70;;;4.80;99.90;;;;;;6305067;22;20093;-83
2023/12/14 09:55:24;;;;;;;379.05;354.63;;;4.80;99.90;;;;;;6305171;22;20061;-83
2023/12/14 09:57:50;;;;;;;397.05;371.20;;;4.80;99.90;;;;;;6304026;22;20022;-83
2023/12/14 10:00:34;;;;;;;361.83;338.30;;;4.80;99.90;;;;;;6304622;22;20049;-83
2023/12/14 10:03:19;;;;;;;359.35;336.30;;;4.80;99.90;;;;;;6332865;22;20448;-83
2023/12/14 10:05:46;;;;;;;339.90;317.80;;;4.90;99.90;;;;;;6302895;22;20045;-83
2023/12/14 10:08:12;;;;;;;398.13;371.85;;;5.00;99.90;;;;;;6305392;22;20014;-83
2023/12/14 10:10:38;;;;;;;365.92;341.90;;;4.90;99.90;;;;;;6303700;22;20021;-83
2023/12/14 10:13:04;;;;;;;349.42;326.80;;;4.90;99.90;;;;;;6305114;22;20021;-83
2023/12/14 10:15:39;;;;;;;397.98;372.02;;;4.90;99.90;;;;;;6278689;22;20395;-82
2023/12/14 10:18:06;;;;;;;358.45;335.23;;;4.90;99.90;;;;;;6304410;22;20939;-82
2023/12/14 10:20:32;;;;;;;333.52;312.05;;;4.90;99.90;;;;;;6277777;22;20018;-82
2023/12/14 10:22:58;;;;;;;311.48;291.13;;;4.90;99.90;;;;;;6279698;22;20021;-82
2023/12/14 10:25:23;;;;;;;376.48;352.25;;;4.90;99.90;;;;;;6303943;22;20030;-82
2023/12/14 10:27:52;;;;;;;347.75;325.13;;;5.10;99.90;;;;;;6304704;22;20022;-82
2023/12/14 10:30:19;;;;;;;346.10;323.73;;;5.00;99.90;;;;;;6333623;22;20011;-82
2023/12/14 10:32:48;;;;;;;351.02;328.38;;;5.00;99.90;;;;;;6303114;22;20019;-82
2023/12/14 10:35:16;;;;;;;341.85;320.27;;;5.00;99.90;;;;;;6304181;22;20085;-82
2023/12/14 10:37:42;;;;;;;367.02;343.75;;;5.00;99.90;;;;;;6304200;22;20029;-81
2023/12/14 10:40:10;;;;;;;390.35;364.52;;;5.00;99.90;;;;;;6303861;22;20030;-81
2023/12/14 10:42:36;;;;;;;406.60;380.23;;;5.00;99.90;;;;;;6304162;22;20024;-81
2023/12/14 10:45:04;;;;;;;402.85;376.38;;;5.10;99.90;;;;;;6304801;22;20456;-81
2023/12/14 10:47:30;;;;;;;440.25;411.00;;;5.10;99.90;;;;;;6303312;22;20007;-81
2023/12/14 10:49:59;;;;;;;396.98;371.45;;;5.10;99.90;;;;;;6303902;22;20042;-82
2023/12/14 10:52:26;;;;;;;444.55;415.30;;;5.20;99.90;;;;;;6304704;22;20332;-81
2023/12/14 10:55:00;;;;;;;394.42;368.85;;;5.30;99.90;;;;;;6304389;22;20023;-82
2023/12/14 10:57:26;;;;;;;383.83;358.90;;;5.40;99.90;;;;;;6278903;22;20010;-81
2023/12/14 10:59:59;;;;;;;368.50;344.83;;;5.40;99.90;;;;;;6303810;22;20029;-82
2023/12/14 11:02:24;;;;;;;344.92;322.83;;;5.50;99.90;;;;;;6304807;22;20015;-81
2023/12/14 11:05:05;;;;;;;347.02;324.90;;;5.50;99.90;;;;;;6303316;22;20094;-82
2023/12/14 11:07:45;;;;;;;352.10;329.92;;;5.60;99.90;;;;;;6304020;22;20022;-82
2023/12/14 11:10:12;;;;;;;389.27;364.13;;;5.60;99.90;;;;;;6332787;22;20368;-82
2023/12/14 11:12:50;;;;;;;375.30;350.65;;;5.60;99.90;;;;;;6279164;22;20019;-82
2023/12/14 11:15:18;;;;;;;422.88;394.70;;;5.90;99.90;;;;;;6304168;22;20029;-81
2023/12/14 11:18:10;;;;;;;436.77;407.65;;;5.60;99.90;;;;;;6278280;22;20095;-81
2023/12/14 11:20:45;;;;;;;371.65;347.13;;;5.70;99.90;;;;;;6303252;22;20347;-81
2023/12/14 11:23:13;;;;;;;348.77;326.10;;;5.70;99.90;;;;;;6277484;22;20057;-82
2023/12/14 11:25:41;;;;;;;391.08;365.58;;;5.70;99.90;;;;;;6304410;22;20007;-81
2023/12/14 11:28:08;;;;;;;372.33;348.00;;;5.70;99.90;;;;;;6303608;22;20011;-82
2023/12/14 11:30:36;;;;;;;402.65;376.27;;;5.80;99.90;;;;;;6304393;22;20518;-83
2023/12/14 11:33:02;;;;;;;410.52;382.85;;;5.80;99.90;;;;;;6304043;22;20061;-82
2023/12/14 11:35:27;;;;;;;399.10;373.25;;;5.70;99.90;;;;;;6302268;22;20015;-82
2023/12/14 11:37:53;;;;;;;378.35;354.25;;;5.80;99.90;;;;;;6304474;22;20616;-84
2023/12/14 11:40:22;;;;;;;379.73;355.13;;;5.80;99.90;;;;;;6304290;22;20027;-84
2023/12/14 11:43:06;;;;;;;318.55;298.10;;;5.80;99.90;;;;;;6277848;22;20015;-84
2023/12/14 11:45:32;;;;;;;308.08;288.38;;;5.80;99.90;;;;;;6304008;22;20022;-84
2023/12/14 11:47:58;;;;;;;343.50;321.08;;;5.80;99.90;;;;;;6304672;22;20014;-84
2023/12/14 11:50:24;;;;;;;352.17;329.67;;;5.90;99.90;;;;;;6302364;22;20015;-83
2023/12/14 11:52:49;;;;;;;364.70;341.40;;;5.90;99.90;;;;;;6303557;22;20018;-84
2023/12/14 11:55:15;;;;;;;321.98;301.85;;;5.90;99.90;;;;;;6304606;22;20360;-83
2023/12/14 11:57:48;;;;;;;348.70;326.73;;;5.90;99.90;;;;;;6302850;22;20018;-84
2023/12/14 12:00:15;;;;;;;301.67;282.60;;;5.90;99.90;;;;;;6304350;22;20031;-84
2023/12/14 12:02:41;;;;;;;288.02;269.40;;;5.90;99.90;;;;;;6303636;22;20196;-84
2023/12/14 12:05:07;;;;;;;304.67;285.33;;;5.90;99.90;;;;;;6276917;22;20149;-84
2023/12/14 12:07:33;;;;;;;330.90;309.90;;;5.90;99.90;;;;;;6304100;22;20010;-84
2023/12/14 12:09:59;;;;;;;350.02;328.05;;;6.00;99.90;;;;;;6278269;22;20022;-84
2023/12/14 12:12:25;;;;;;;274.83;257.73;;;5.90;99.90;;;;;;6277611;22;20018;-83
2023/12/14 12:14:52;;;;;;;306.50;287.75;;;5.90;99.90;;;;;;6303784;22;20022;-84
2023/12/14 12:17:19;;;;;;;304.13;285.10;;;5.90;99.90;;;;;;6304502;22;20047;-84
2023/12/14 12:19:45;;;;;;;296.67;278.25;;;5.90;99.90;;;;;;6304966;22;20373;-83
2023/12/14 12:22:11;;;;;;;291.30;273.33;;;5.90;99.90;;;;;;6306335;22;20054;-84
2023/12/14 12:24:37;;;;;;;275.58;258.30;;;5.90;99.90;;;;;;6304657;22;20453;-84
2023/12/14 12:27:04;;;;;;;315.88;296.13;;;5.90;99.90;;;;;;6306033;22;20011;-83
2023/12/14 12:29:30;;;;;;;280.85;263.42;;;5.90;99.90;;;;;;6305846;22;20474;-83
2023/12/14 12:31:56;;;;;;;273.30;256.02;;;5.90;99.90;;;;;;6333373;22;20037;-83
2023/12/14 12:34:22;;;;;;;300.67;281.88;;;5.90;99.90;;;;;;6305603;22;20447;-82
2023/12/14 12:36:48;;;;;;;325.58;305.00;;;5.90;99.90;;;;;;6306027;22;20292;-83
2023/12/14 12:39:14;;;;;;;281.90;264.60;;;5.90;99.90;;;;;;6304989;22;20023;-82
2023/12/14 12:41:39;;;;;;;335.60;314.65;;;5.90;99.90;;;;;;6305726;22;20022;-82
2023/12/14 12:44:07;;;;;;;314.30;294.70;;;5.90;99.90;;;;;;6280259;22;20022;-83
2023/12/14 12:46:34;;;;;;;307.88;288.67;;;5.90;99.90;;;;;;6304521;22;20439;-82
2023/12/14 12:49:01;;;;;;;319.45;299.65;;;5.90;99.90;;;;;;6306401;22;20122;-82
2023/12/14 12:51:27;;;;;;;356.08;333.27;;;5.90;99.90;;;;;;6303940;22;20097;-83
2023/12/14 12:53:54;;;;;;;286.40;268.40;;;5.80;99.90;;;;;;6305340;22;20042;-83
2023/12/14 12:56:20;;;;;;;288.92;270.98;;;5.70;99.90;;;;;;6305324;22;20081;-82
2023/12/14 12:58:46;;;;;;;321.52;301.48;;;5.70;99.90;;;;;;6300346;22;20019;-83
2023/12/14 13:01:12;;;;;;;328.40;307.85;;;5.70;99.90;;;;;;6299462;22;20023;-83
2023/12/14 13:03:38;;;;;;;293.42;275.35;;;5.60;99.90;;;;;;6274720;22;20335;-83
2023/12/14 13:06:04;;;;;;;309.75;290.40;;;5.60;99.90;;;;;;6274112;22;20042;-83
2023/12/14 13:08:29;;;;;;;341.35;319.88;;;5.60;99.90;;;;;;6299048;22;20087;-84
2023/12/14 13:10:55;;;;;;;325.95;305.58;;;5.60;99.90;;;;;;6300420;22;20019;-84
2023/12/14 13:13:21;;;;;;;291.90;273.20;;;5.60;99.90;;;;;;6299904;22;20138;-83
2023/12/14 13:15:47;;;;;;;320.42;300.50;;;5.60;99.90;;;;;;6300025;22;20463;-84
2023/12/14 13:18:16;;;;;;;333.25;312.05;;;5.60;99.90;;;;;;6274851;22;20054;-84
2023/12/14 13:20:42;;;;;;;306.98;287.98;;;5.60;99.90;;;;;;6297996;22;20026;-83
2023/12/14 13:23:08;;;;;;;339.88;318.63;;;5.60;99.90;;;;;;6300636;22;20020;-83
2023/12/14 13:25:34;;;;;;;315.73;295.67;;;5.60;99.90;;;;;;6273603;22;20103;-83
2023/12/14 13:28:00;;;;;;;310.33;290.98;;;5.70;99.90;;;;;;6299377;22;20011;-83
2023/12/14 13:30:26;;;;;;;320.92;301.23;;;5.60;99.90;;;;;;6299975;22;20076;-83
2023/12/14 13:32:53;;;;;;;311.30;291.85;;;5.60;99.90;;;;;;6300252;22;20107;-83
2023/12/14 13:35:19;;;;;;;280.52;263.27;;;5.60;99.90;;;;;;6298975;22;20381;-83
2023/12/14 13:37:46;;;;;;;326.60;306.33;;;5.60;99.90;;;;;;6300024;22;20072;-84
2023/12/14 13:40:12;;;;;;;313.52;294.20;;;5.60;99.90;;;;;;6300317;22;20066;-83
2023/12/14 13:42:38;;;;;;;297.40;278.90;;;5.60;99.90;;;;;;6298696;22;20064;-84
2023/12/14 13:45:04;;;;;;;333.10;312.08;;;5.60;99.90;;;;;;6274509;22;20367;-83
2023/12/14 13:47:30;;;;;;;319.05;298.65;;;5.60;99.90;;;;;;6300020;22;20490;-83
2023/12/14 13:49:56;;;;;;;297.13;278.70;;;5.50;99.90;;;;;;6297918;22;20022;-83
2023/12/14 13:52:22;;;;;;;290.73;272.75;;;5.50;99.90;;;;;;6274870;22;20015;-83
2023/12/14 13:54:48;;;;;;;317.08;297.55;;;5.50;99.90;;;;;;6298994;22;20404;-83
2023/12/14 13:57:13;;;;;;;295.13;276.88;;;5.50;99.90;;;;;;6301745;22;20019;-83
2023/12/14 13:59:39;;;;;;;277.23;260.48;;;5.50;99.90;;;;;;6299335;22;20447;-83
2023/12/14 14:02:05;;;;;;;318.80;299.05;;;5.40;99.90;;;;;;6300012;22;20052;-83
2023/12/14 14:04:30;;;;;;;324.63;303.90;;;5.40;99.90;;;;;;6298050;22;20415;-82
2023/12/14 14:06:56;;;;;;;317.25;297.20;;;5.40;99.90;;;;;;6299967;22;20019;-83
2023/12/14 14:09:22;;;;;;;312.65;292.60;;;5.40;99.90;;;;;;6299909;22;20015;-83
2023/12/14 14:11:50;;;;;;;332.52;311.85;;;5.30;99.90;;;;;;6299244;22;20427;-84
2023/12/14 14:14:16;;;;;;;322.65;302.55;;;5.30;99.90;;;;;;6299582;22;20108;-84
2023/12/14 14:16:41;;;;;;;353.27;331.08;;;5.30;99.90;;;;;;6299041;22;20023;-83
2023/12/14 14:19:07;;;;;;;330.42;309.50;;;5.30;99.90;;;;;;6299389;22;20015;-84
2023/12/14 14:21:33;;;;;;;359.70;336.88;;;5.30;99.90;;;;;;6298395;22;20284;-82
2023/12/14 14:23:59;;;;;;;361.67;338.33;;;5.30;99.90;;;;;;6301311;22;20049;-84
2023/12/14 14:26:24;;;;;;;370.25;346.67;;;5.30;99.90;;;;;;6299007;22;20023;-84
2023/12/14 14:28:50;;;;;;;421.25;394.30;;;5.30;99.90;;;;;;6300142;22;20057;-83
2023/12/14 14:31:16;;;;;;;439.67;410.38;;;5.30;99.90;;;;;;6298359;22;20433;-83
2023/12/14 14:33:41;;;;;;;460.58;429.40;;;5.30;99.90;;;;;;6273630;22;20094;-83
2023/12/14 14:36:08;;;;;;;447.70;418.27;;;5.30;99.90;;;;;;6299081;22;20023;-83
2023/12/14 14:38:34;;;;;;;470.38;439.10;;;5.30;99.90;;;;;;6272492;22;20022;-84
2023/12/14 14:40:59;;;;;;;453.88;423.45;;;5.30;99.90;;;;;;6299636;22;20027;-83
2023/12/14 14:43:25;;;;;;;470.92;439.35;;;5.30;99.90;;;;;;6300118;22;20046;-83
2023/12/14 14:45:51;;;;;;;473.48;441.67;;;5.30;99.90;;;;;;6298828;22;20023;-84
2023/12/14 14:48:18;;;;;;;481.58;449.20;;;5.30;99.90;;;;;;6273944;22;20022;-84
2023/12/14 14:50:44;;;;;;;445.77;416.05;;;5.30;99.90;;;;;;6272119;22;20057;-84
2023/12/14 14:53:12;;;;;;;448.48;419.35;;;5.30;99.90;;;;;;6272766;22;20019;-84
2023/12/14 14:55:38;;;;;;;474.27;442.42;;;5.30;99.90;;;;;;6273018;22;20447;-84
2023/12/14 14:58:04;;;;;;;438.38;409.98;;;5.30;99.90;;;;;;6299609;22;20012;-84
2023/12/14 15:00:31;;;;;;;446.00;416.70;;;5.20;99.90;;;;;;6300392;22;20015;-84
2023/12/14 15:02:57;;;;;;;493.58;460.42;;;5.20;99.90;;;;;;6299619;22;20024;-84
2023/12/14 15:05:23;;;;;;;462.15;431.63;;;5.50;99.90;;;;;;6298573;22;20069;-84
2023/12/14 15:07:49;;;;;;;471.25;439.85;;;5.20;99.90;;;;;;6298030;22;20065;-83
2023/12/14 15:10:14;;;;;;;472.40;440.95;;;5.10;99.90;;;;;;6298728;22;20488;-83
2023/12/14 15:12:40;;;;;;;452.17;422.17;;;5.10;99.90;;;;;;6301346;22;20019;-83
2023/12/14 15:15:06;;;;;;;482.05;449.60;;;5.10;99.90;;;;;;6297862;22;20348;-82
2023/12/14 15:17:32;;;;;;;497.02;463.75;;;5.10;99.90;;;;;;6299412;22;20033;-83
2023/12/14 15:19:58;;;;;;;487.48;454.15;;;5.10;99.90;;;;;;6297156;22;20023;-83
2023/12/14 15:22:23;;;;;;;506.40;471.98;;;5.00;99.90;;;;;;6299643;22;20049;-83
2023/12/14 15:24:49;;;;;;;493.25;460.33;;;5.00;99.90;;;;;;6298561;22;20022;-81
2023/12/14 15:27:15;;;;;;;513.25;477.88;;;5.10;99.90;;;;;;6298302;22;20015;-82
2023/12/14 15:29:41;;;;;;;522.08;486.13;;;5.00;99.90;;;;;;6299157;22;20197;-81
2023/12/14 15:32:07;;;;;;;484.80;452.40;;;5.00;99.90;;;;;;6300898;22;20043;-82
2023/12/14 15:34:33;;;;;;;484.92;452.17;;;5.00;99.90;;;;;;6297158;22;20019;-84
2023/12/14 15:36:59;;;;;;;519.97;484.40;;;5.00;99.90;;;;;;6299457;22;20099;-82
2023/12/14 15:39:24;;;;;;;502.95;468.77;;;5.00;99.90;;;;;;6273087;22;20325;-83
2023/12/14 15:41:50;;;;;;;534.95;497.98;;;4.90;99.90;;;;;;6298273;22;20025;-81
2023/12/14 15:44:16;;;;;;;502.20;467.65;;;4.90;99.90;;;;;;6298469;22;20019;-82
2023/12/14 15:46:42;;;;;;;476.75;444.08;;;4.90;99.90;;;;;;6299019;22;20021;-81
2023/12/14 15:49:07;;;;;;;524.75;488.98;;;4.90;99.90;;;;;;6298454;22;20025;-82
2023/12/14 15:51:33;;;;;;;511.33;475.75;;;5.00;99.90;;;;;;6298022;22;20023;-82
2023/12/14 15:53:59;;;;;;;566.50;526.60;;;4.90;99.90;;;;;;6275712;22;20015;-82
2023/12/14 15:56:27;;;;;;;535.45;497.45;;;4.90;99.90;;;;;;6299780;22;20015;-82
2023/12/14 15:58:53;;;;;;;543.63;505.42;;;4.90;99.90;;;;;;6301030;22;20033;-81
2023/12/14 16:01:20;;;;;;;621.58;576.30;;;5.00;99.90;;;;;;6274969;22;20051;-82
2023/12/14 16:03:46;;;;;;;598.78;555.67;;;5.00;99.90;;;;;;6300334;22;20015;-82
2023/12/14 16:06:13;;;;;;;594.90;552.33;;;5.00;99.90;;;;;;6299869;22;20095;-81
2023/12/14 16:08:39;;;;;;;587.95;545.75;;;5.00;99.90;;;;;;6299715;22;20363;-82
2023/12/14 16:11:06;;;;;;;583.75;541.58;;;5.00;99.90;;;;;;6274841;22;20046;-81
2023/12/14 16:13:32;;;;;;;612.60;567.70;;;5.00;99.90;;;;;;6275263;22;20022;-82
2023/12/14 16:15:58;;;;;;;632.10;585.60;;;5.00;99.90;;;;;;6301429;22;20011;-81
2023/12/14 16:18:24;;;;;;;610.00;566.45;;;5.00;99.90;;;;;;6274609;22;20019;-81
2023/12/14 16:20:49;;;;;;;625.33;579.38;;;5.00;99.90;;;;;;6299680;22;20439;-82
2023/12/14 16:23:15;;;;;;;647.95;600.30;;;4.90;99.90;;;;;;6300811;22;20392;-81
2023/12/14 16:25:42;;;;;;;640.50;593.17;;;4.90;99.90;;;;;;6274562;22;20113;-81
2023/12/14 16:28:07;;;;;;;655.33;607.00;;;4.90;99.90;;;;;;6275784;22;20019;-82
2023/12/14 16:30:33;;;;;;;649.78;600.80;;;5.00;99.90;;;;;;6301808;22;20019;-81
2023/12/14 16:32:59;;;;;;;640.35;593.05;;;4.90;99.90;;;;;;6301267;22;20494;-82
2023/12/14 16:35:24;;;;;;;643.22;596.50;;;4.90;99.90;;;;;;6300280;22;20065;-81
2023/12/14 16:37:50;;;;;;;652.17;603.83;;;4.90;99.90;;;;;;6299665;22;20037;-82
2023/12/14 16:40:16;;;;;;;644.90;597.83;;;4.90;99.90;;;;;;6300798;22;20019;-82
2023/12/14 16:42:42;;;;;;;657.40;608.47;;;4.90;99.90;;;;;;6274774;22;20015;-83
2023/12/14 16:45:10;;;;;;;652.40;604.60;;;4.90;99.90;;;;;;6299613;22;20097;-82
2023/12/14 16:47:36;;;;;;;607.13;562.60;;;4.90;99.90;;;;;;6301158;22;20104;-82
2023/12/14 16:50:03;;;;;;;625.10;579.25;;;4.90;99.90;;;;;;6298997;22;20456;-82
2023/12/14 16:52:29;;;;;;;598.80;554.85;;;4.90;99.90;;;;;;6300044;22;20031;-82
2023/12/14 16:54:55;;;;;;;570.55;529.88;;;4.90;99.90;;;;;;6300329;22;20023;-83
2023/12/14 16:57:21;;;;;;;594.83;551.70;;;4.90;99.90;;;;;;6301109;22;20019;-82
2023/12/14 16:59:47;;;;;;;581.40;539.80;;;4.90;99.90;;;;;;6298852;22;20030;-82
2023/12/14 17:02:14;;;;;;;566.63;526.15;;;4.90;99.90;;;;;;6300651;22;20022;-82
2023/12/14 17:04:40;;;;;;;579.80;539.05;;;4.80;99.90;;;;;;6299999;22;20240;-82
2023/12/14 17:07:06;;;;;;;606.55;562.65;;;4.80;99.90;;;;;;6299761;22;20015;-82
2023/12/14 17:09:32;;;;;;;564.15;524.58;;;4.80;99.90;;;;;;6300558;22;20401;-82
2023/12/14 17:11:57;;;;;;;620.47;575.38;;;4.80;99.90;;;;;;6301353;22;20015;-83
2023/12/14 17:14:23;;;;;;;578.00;536.10;;;5.20;99.90;;;;;;6299317;22;20011;-82